Aviation Digital Data Service (ADDS)

Output produced by METARs form (1856 UTC 29 May 2017)
found at http://www.aviationweather.gov/adds/metars/
 
KCXY 291807Z 11009KT 10SM BKN015 21/16 A2993 RMK AO2 T02060161
KCXY 291756Z 12010KT 10SM BKN013 21/16 A2993 RMK AO2 SLP134 60001 T02060161 10211 20161 51003
KCXY 291656Z 09008KT 10SM OVC010 20/17 A2993 RMK AO2 SLP134 T02000167
KCXY 291556Z 10006KT 7SM OVC007 17/15 A2992 RMK AO2 SLP132 T01720150
KCXY 291456Z 09006KT 4SM BR OVC005 17/15 A2989 RMK AO2 SLP123 60001 T01670150 50019
KCXY 291450Z 09006KT 4SM BR OVC005 17/15 A2990 RMK AO2
KCXY 291356Z 09005KT 1SM R08/P6000FT BR OVC004 16/14 A2989 RMK AO2 SLP123 T01610144
KCXY 291336Z 10006KT 1SM R08/P6000FT BR OVC005 16/14 A2989 RMK AO2 T01610144
KCXY 291256Z 11004KT 4SM BR OVC005 16/14 A2988 RMK AO2 RAE38 SLP117 P0001 T01610144
KCXY 291220Z 12006KT 4SM RA BR OVC005 16/14 A2986 RMK AO2 LTG DSNT NE P0001 T01610144
KCXY 291213Z 13008KT 3SM RA BR OVC004 16/14 A2984 RMK AO2 LTG DSNT N AND NE CIG 004V008 P0001 T01560144
KCXY 291156Z 04009KT 2SM +RA BR OVC004 16/14 A2984 RMK AO2 LTG DSNT N RAB44 PRESFR SLP104 P0004 60008 70016 T01610139 10161 20156 50009
KCXY 291056Z 11006KT 2SM BR OVC004 16/14 A2984 RMK AO2 LTG DSNT W AND NW RAB0959E47 SLP104 P0000 T01560144
KCXY 291053Z 10007KT 2SM BR OVC004 16/14 A2984 RMK AO2 LTG DSNT W RAB0959E47 P0000
KCXY 291047Z AUTO 11007KT 3SM BR OVC005 16/14 A2983 RMK AO2 LTG DSNT W RAB0959E47 P0000 T01560144
KCXY 291037Z AUTO 10009KT 2 1/2SM -RA BR OVC005 16/14 A2982 RMK AO2 RAB0959 P0000 T01560139
KCXY 290956Z AUTO 10006KT 8SM OVC005 16/14 A2983 RMK AO2 RAE22 SLP102 P0000 T01610144
KCXY 290856Z AUTO 10005KT 8SM -RA OVC006 16/14 A2981 RMK AO2 SLP094 P0002 60004 T01610144 58006
KCXY 290756Z AUTO 08005KT 5SM -RA BR OVC005 16/14 A2981 RMK AO2 SLP095 P0001 T01610144
KCXY 290656Z AUTO 09003KT 4SM -RA BR OVC006 16/14 A2983 RMK AO2 CIG 003V009 SLP103 P0001 T01560144
KCXY 290634Z AUTO 09005KT 3SM -RA BR OVC007 16/14 A2982 RMK AO2 CIG 003V008 P0001 T01610144
KCXY 290618Z AUTO 08006KT 2 1/2SM -RA BR OVC007 16/14 A2982 RMK AO2 CIG 005V009 P0000 T01610144
KCXY 290556Z AUTO 08005KT 8SM -RA OVC009 16/14 A2983 RMK AO2 SLP100 P0000 60007 T01610139 10194 20161 55010
KCXY 290456Z AUTO 10008KT 10SM -RA OVC012 16/14 A2983 RMK AO2 SLP099 P0004 T01610144 402330133
KCXY 290443Z AUTO 10009KT 9SM -RA SCT005 OVC010 17/14 A2983 RMK AO2 P0004 T01670144
KCXY 290404Z AUTO 10009KT 3SM RA BR BKN005 BKN009 OVC039 17/16 A2984 RMK AO2 P0002 T01670156
KCXY 290356Z AUTO 10007KT 3SM RA BR SCT005 BKN010 OVC039 17/16 A2984 RMK AO2 SLP103 P0002 T01720156
KCXY 290326Z AUTO 12008KT 4SM -RA BR FEW006 SCT012 OVC035 17/16 A2985 RMK AO2 P0001 T01720156
KCXY 290317Z AUTO 12010KT 4SM -RA BR SCT006 BKN012 OVC035 17/16 A2985 RMK AO2 P0001 T01720156
KCXY 290256Z AUTO 11008KT 3SM -RA BR BKN006 BKN011 OVC023 18/16 A2986 RMK AO2 CIG 004V008 SLP111 P0001 60001 T01780161 50001
KCXY 290253Z AUTO 11008KT 3SM -RA BR SCT006 BKN011 OVC023 18/16 A2986 RMK AO2 CIG 009V012 P0001
KCXY 290246Z AUTO 11007KT 3SM -RA BR BKN008 BKN015 OVC023 18/16 A2986 RMK AO2 CIG 004V011 P0001 T01780161
KCXY 290221Z AUTO 10005KT 3SM -RA BR FEW005 BKN017 OVC023 18/16 A2986 RMK AO2 P0001 T01780161
KCXY 290211Z AUTO 09005KT 3SM -RA BR OVC017 18/16 A2986 RMK AO2 P0001 T01780161
KCXY 290156Z AUTO 11005KT 2 1/2SM -RA BR FEW008 OVC018 18/16 A2986 RMK AO2 RAB04 SLP113 P0000 T01780161
KCXY 290150Z AUTO 11004KT 2 1/2SM -RA BR FEW008 OVC018 18/16 A2986 RMK AO2 RAB04 P0000
KCXY 290056Z 11005KT 10SM OVC021 19/16 A2986 RMK AO2 SLP111 T01890156
KCXY 290037Z 10004KT 10SM BKN021 BKN026 OVC032 19/16 A2986 RMK AO2 T01890156
KCXY 290020Z 11004KT 10SM SCT023 OVC032 19/16 A2986 RMK AO2 T01890156
KCXY 282356Z 10006KT 10SM FEW014 BKN021 OVC045 19/16 A2986 RMK AO2 SLP112 60001 T01940156 10228 20194 51006
KCXY 282318Z 11006KT 10SM BKN025 BKN030 OVC045 19/16 A2986 RMK AO2 T01940156
KCXY 282256Z 11006KT 10SM SCT032 OVC046 20/16 A2986 RMK AO2 RAB05E14 SLP111 P0000 T02000156
KCXY 282156Z 14009KT 10SM OVC045 21/16 A2985 RMK AO2 SLP108 T02110161
KCXY 282114Z 13007KT 10SM SCT025 OVC039 21/17 A2984 RMK AO2 T02110167
KCXY 282056Z 13004KT 10SM BKN027 OVC034 21/17 A2984 RMK AO2 RAE1957 SLP106 P0000 60001 T02060172 56011
KCXY 281956Z 11007KT 10SM -RA SCT037 BKN047 OVC075 22/17 A2985 RMK AO2 SLP108 P0001 T02170172
KCXY 281905Z 13007KT 8SM -RA SCT032 OVC050 22/16 A2986 RMK AO2 P0000 T02170156
KCXY 281856Z 14006KT 10SM VCTS -RA FEW032 OVC050 22/16 A2986 RMK AO2 LTG DSNT SW RAB34 SLP113 P0000 T02220156
KCXY 281756Z 14007KT 10SM FEW032 OVC050 23/14 A2988 RMK AO2 SLP117 T02280144 10233 20156 58008
KCXY 281656Z 11008KT 070V130 10SM BKN030 OVC049 23/16 A2989 RMK AO2 SLP121 T02280156
KCXY 281556Z 10005KT 10SM BKN025 OVC050 21/16 A2990 RMK AO2 SLP126 T02110156
KCXY 281554Z 09005KT 10SM BKN025 OVC050 22/16 A2990 RMK AO2
KCXY 281456Z 10007KT 7SM OVC055 20/15 A2988 RMK AO2 SLP120 T02000150 58005
KCXY 281429Z 08005KT 4SM HZ SCT012 OVC050 19/16 A2989 RMK AO2 T01940156
KCXY 281413Z 07005KT 4SM HZ SCT009 BKN012 OVC055 19/16 A2990 RMK AO2 T01890156
KCXY 281403Z 00000KT 4SM HZ BKN008 OVC055 19/15 A2990 RMK AO2 T01890150
KCXY 281356Z 00000KT 2 1/2SM HZ BKN008 OVC055 18/15 A2990 RMK AO2 SLP126 T01830150
KCXY 281338Z 12004KT 2 1/2SM BR OVC005 18/16 A2989 RMK AO2 CIG 003V008 T01780156
KCXY 281328Z 09005KT 1SM R08/P6000FT BR OVC003 17/16 A2989 RMK AO2 T01720156
KCXY 281318Z 11006KT 3/4SM R08/P6000FT BR OVC003 17/15 A2990 RMK AO2 T01670150
KCXY 281256Z 10003KT 3/4SM R08/5500VP6000FT BR OVC002 16/15 A2990 RMK AO2 SLP126 T01610150
KCXY 281156Z 12003KT 1/2SM R08/2400V6000FT FG VV002 16/14 A2990 RMK AO2 SLP125 T01610144 10161 20133 50006
KCXY 281056Z 00000KT M1/4SM R08/0700V1000FT FG VV002 15/14 A2991 RMK AO2 SLP127 T01500139
KCXY 280956Z AUTO 00000KT M1/4SM R08/1000V1200FT FG VV002 14/13 A2989 RMK AO2 SLP123 T01440133
KCXY 280856Z AUTO 00000KT 1/4SM R08/1400V1800FT FG VV002 14/13 A2988 RMK AO2 SLP119 T01440133 56005
KCXY 280828Z AUTO 00000KT 1/4SM R08/0800V1600FT FG VV002 14/13 A2988 RMK AO2 T01440133
KCXY 280821Z AUTO 24004KT 1/4SM R08/1000V2400FT FG VV002 14/13 A2989 RMK AO2 T01440128
KCXY 280813Z AUTO 00000KT 1 1/4SM R08/2200VP6000FT BR OVC002 14/13 A2988 RMK AO2 T01440128
KCXY 280803Z AUTO 00000KT 7SM OVC002 14/12 A2988 RMK AO2 T01390122
KCXY 280756Z AUTO 00000KT 7SM OVC003 14/12 A2989 RMK AO2 SLP120 T01390122
KCXY 280739Z AUTO 21004KT 6SM BR BKN003 14/12 A2988 RMK AO2 T01390122
KCXY 280731Z AUTO 00000KT 5SM BR SCT004 14/12 A2987 RMK AO2 T01390122